sensor_id;sensor_type;location;lat;lon;timestamp;pressure;altitude;pressure_sealevel;temperature;humidity
18749;BME280;9503;53.560;10.246;2022-10-19T00:01:06;102059.63;;;12.72;100.00
18749;BME280;9503;53.560;10.246;2022-10-19T00:03:34;102056.16;;;12.72;100.00
18749;BME280;9503;53.560;10.246;2022-10-19T00:06:09;102055.63;;;12.78;100.00
18749;BME280;9503;53.560;10.246;2022-10-19T00:08:36;102060.25;;;12.83;100.00
18749;BME280;9503;53.560;10.246;2022-10-19T00:11:03;102049.41;;;12.74;100.00
18749;BME280;9503;53.560;10.246;2022-10-19T00:13:30;102055.63;;;12.78;100.00
18749;BME280;9503;53.560;10.246;2022-10-19T00:15:58;102054.66;;;12.76;100.00
18749;BME280;9503;53.560;10.246;2022-10-19T00:18:25;102058.09;;;12.76;100.00
18749;BME280;9503;53.560;10.246;2022-10-19T00:20:51;102053.34;;;12.82;100.00
18749;BME280;9503;53.560;10.246;2022-10-19T00:23:18;102058.72;;;12.72;100.00
18749;BME280;9503;53.560;10.246;2022-10-19T00:25:53;102060.88;;;12.79;100.00
18749;BME280;9503;53.560;10.246;2022-10-19T00:28:21;102052.38;;;12.80;100.00
18749;BME280;9503;53.560;10.246;2022-10-19T00:30:47;102054.88;;;12.93;100.00
18749;BME280;9503;53.560;10.246;2022-10-19T00:33:15;102052.91;;;12.89;100.00
18749;BME280;9503;53.560;10.246;2022-10-19T00:35:45;102061.59;;;12.91;100.00
18749;BME280;9503;53.560;10.246;2022-10-19T00:38:14;102066.25;;;12.97;100.00
18749;BME280;9503;53.560;10.246;2022-10-19T00:40:41;102066.44;;;13.00;100.00
18749;BME280;9503;53.560;10.246;2022-10-19T00:43:12;102077.44;;;13.12;100.00
18749;BME280;9503;53.560;10.246;2022-10-19T00:45:39;102081.16;;;13.03;100.00
18749;BME280;9503;53.560;10.246;2022-10-19T00:48:06;102069.56;;;13.09;100.00
18749;BME280;9503;53.560;10.246;2022-10-19T00:50:35;102077.28;;;13.09;100.00
18749;BME280;9503;53.560;10.246;2022-10-19T00:53:02;102076.25;;;13.20;100.00
18749;BME280;9503;53.560;10.246;2022-10-19T00:55:28;102078.16;;;13.10;100.00
18749;BME280;9503;53.560;10.246;2022-10-19T00:57:56;102079.41;;;13.16;100.00
18749;BME280;9503;53.560;10.246;2022-10-19T01:00:22;102082.41;;;13.22;100.00
18749;BME280;9503;53.560;10.246;2022-10-19T01:02:49;102088.13;;;13.18;100.00
18749;BME280;9503;53.560;10.246;2022-10-19T01:05:16;102083.44;;;13.26;100.00
18749;BME280;9503;53.560;10.246;2022-10-19T01:07:44;102096.06;;;13.36;100.00
18749;BME280;9503;53.560;10.246;2022-10-19T01:10:11;102096.63;;;13.31;100.00
18749;BME280;9503;53.560;10.246;2022-10-19T01:12:53;102088.25;;;13.35;100.00
18749;BME280;9503;53.560;10.246;2022-10-19T01:15:27;102089.72;;;13.16;99.68
18749;BME280;9503;53.560;10.246;2022-10-19T01:18:03;102087.72;;;13.25;99.96
18749;BME280;9503;53.560;10.246;2022-10-19T01:20:55;102077.28;;;13.09;99.61
18749;BME280;9503;53.560;10.246;2022-10-19T01:23:45;102083.19;;;13.36;98.11
18749;BME280;9503;53.560;10.246;2022-10-19T01:26:42;102079.84;;;13.37;97.81
18749;BME280;9503;53.560;10.246;2022-10-19T01:29:16;102079.47;;;13.31;96.90
18749;BME280;9503;53.560;10.246;2022-10-19T01:31:50;102073.44;;;13.31;96.13
18749;BME280;9503;53.560;10.246;2022-10-19T01:34:25;102070.22;;;13.35;95.19
18749;BME280;9503;53.560;10.246;2022-10-19T01:36:57;102069.16;;;13.31;92.94
18749;BME280;9503;53.560;10.246;2022-10-19T01:39:31;102071.28;;;13.23;87.02
18749;BME280;9503;53.560;10.246;2022-10-19T01:42:08;102074.47;;;13.34;85.62
18749;BME280;9503;53.560;10.246;2022-10-19T01:44:41;102081.78;;;13.41;84.77
18749;BME280;9503;53.560;10.246;2022-10-19T01:47:14;102071.56;;;13.43;85.69
18749;BME280;9503;53.560;10.246;2022-10-19T01:49:46;102073.06;;;13.24;87.37
18749;BME280;9503;53.560;10.246;2022-10-19T01:52:17;102073.25;;;13.42;88.15
18749;BME280;9503;53.560;10.246;2022-10-19T01:54:48;102075.13;;;13.45;89.12
18749;BME280;9503;53.560;10.246;2022-10-19T01:57:19;102070.13;;;13.33;90.88
18749;BME280;9503;53.560;10.246;2022-10-19T01:59:48;102072.00;;;13.36;91.73
18749;BME280;9503;53.560;10.246;2022-10-19T02:02:17;102073.22;;;13.27;92.14
18749;BME280;9503;53.560;10.246;2022-10-19T02:04:45;102079.81;;;13.22;92.24
18749;BME280;9503;53.560;10.246;2022-10-19T02:07:14;102074.50;;;13.06;93.18
18749;BME280;9503;53.560;10.246;2022-10-19T02:09:41;102077.41;;;12.97;93.63
18749;BME280;9503;53.560;10.246;2022-10-19T02:12:09;102070.00;;;13.17;93.40
18749;BME280;9503;53.560;10.246;2022-10-19T02:14:39;102072.28;;;13.12;93.30
18749;BME280;9503;53.560;10.246;2022-10-19T02:17:09;102072.50;;;13.15;92.73
18749;BME280;9503;53.560;10.246;2022-10-19T02:19:38;102070.97;;;13.19;91.69
18749;BME280;9503;53.560;10.246;2022-10-19T02:22:05;102075.84;;;13.14;90.44
18749;BME280;9503;53.560;10.246;2022-10-19T02:24:32;102081.34;;;13.06;89.65
18749;BME280;9503;53.560;10.246;2022-10-19T02:26:59;102071.69;;;13.16;88.40
18749;BME280;9503;53.560;10.246;2022-10-19T02:29:29;102078.75;;;13.06;87.60
18749;BME280;9503;53.560;10.246;2022-10-19T02:31:56;102074.84;;;12.97;86.94
18749;BME280;9503;53.560;10.246;2022-10-19T02:34:23;102065.28;;;13.10;86.14
18749;BME280;9503;53.560;10.246;2022-10-19T02:36:51;102072.50;;;13.15;85.57
18749;BME280;9503;53.560;10.246;2022-10-19T02:39:18;102073.63;;;13.06;83.43
18749;BME280;9503;53.560;10.246;2022-10-19T02:41:48;102073.44;;;13.03;82.79
18749;BME280;9503;53.560;10.246;2022-10-19T02:44:19;102066.09;;;13.09;82.65
18749;BME280;9503;53.560;10.246;2022-10-19T02:46:51;102073.38;;;13.16;83.74
18749;BME280;9503;53.560;10.246;2022-10-19T02:49:20;102080.66;;;13.08;84.78
18749;BME280;9503;53.560;10.246;2022-10-19T02:51:59;102074.34;;;13.03;85.71
18749;BME280;9503;53.560;10.246;2022-10-19T02:54:26;102075.38;;;13.07;85.41
18749;BME280;9503;53.560;10.246;2022-10-19T02:56:53;102075.50;;;13.08;85.96
18749;BME280;9503;53.560;10.246;2022-10-19T02:59:20;102077.19;;;13.08;86.86
18749;BME280;9503;53.560;10.246;2022-10-19T03:01:46;102073.06;;;12.96;87.76
18749;BME280;9503;53.560;10.246;2022-10-19T03:04:13;102077.72;;;13.02;88.26
18749;BME280;9503;53.560;10.246;2022-10-19T03:06:40;102082.59;;;13.12;88.79
18749;BME280;9503;53.560;10.246;2022-10-19T03:09:08;102077.72;;;13.17;88.59
18749;BME280;9503;53.560;10.246;2022-10-19T03:11:34;102088.03;;;13.17;88.34
18749;BME280;9503;53.560;10.246;2022-10-19T03:14:01;102084.13;;;13.09;89.08
18749;BME280;9503;53.560;10.246;2022-10-19T03:16:27;102090.59;;;13.17;88.93
18749;BME280;9503;53.560;10.246;2022-10-19T03:18:54;102085.19;;;13.12;88.72
18749;BME280;9503;53.560;10.246;2022-10-19T03:21:21;102092.53;;;13.06;88.98
18749;BME280;9503;53.560;10.246;2022-10-19T03:23:47;102093.88;;;13.14;88.65
18749;BME280;9503;53.560;10.246;2022-10-19T03:26:15;102095.56;;;13.14;88.67
18749;BME280;9503;53.560;10.246;2022-10-19T03:28:42;102096.88;;;13.07;88.34
18749;BME280;9503;53.560;10.246;2022-10-19T03:31:09;102093.22;;;12.89;88.87
18749;BME280;9503;53.560;10.246;2022-10-19T03:33:35;102100.56;;;12.83;89.33
18749;BME280;9503;53.560;10.246;2022-10-19T03:36:12;102109.13;;;12.96;89.02
18749;BME280;9503;53.560;10.246;2022-10-19T03:38:39;102108.88;;;13.07;88.42
18749;BME280;9503;53.560;10.246;2022-10-19T03:41:05;102109.94;;;13.10;88.00
18749;BME280;9503;53.560;10.246;2022-10-19T03:43:33;102109.75;;;13.07;88.25
18749;BME280;9503;53.560;10.246;2022-10-19T03:46:00;102114.25;;;12.96;88.40
18749;BME280;9503;53.560;10.246;2022-10-19T03:48:26;102122.97;;;12.98;87.83
18749;BME280;9503;53.560;10.246;2022-10-19T03:50:57;102122.03;;;13.11;87.43
18749;BME280;9503;53.560;10.246;2022-10-19T03:53:24;102121.50;;;13.17;86.63
18749;BME280;9503;53.560;10.246;2022-10-19T03:55:50;102120.53;;;13.15;86.52
18749;BME280;9503;53.560;10.246;2022-10-19T03:58:17;102127.56;;;13.17;86.86
18749;BME280;9503;53.560;10.246;2022-10-19T04:00:45;102128.06;;;13.12;86.77
18749;BME280;9503;53.560;10.246;2022-10-19T04:03:11;102137.94;;;13.19;86.71
18749;BME280;9503;53.560;10.246;2022-10-19T04:05:38;102140.84;;;13.23;86.95
18749;BME280;9503;53.560;10.246;2022-10-19T04:08:04;102139.94;;;13.23;86.85
18749;BME280;9503;53.560;10.246;2022-10-19T04:10:31;102144.38;;;13.25;86.60
18749;BME280;9503;53.560;10.246;2022-10-19T04:12:57;102142.84;;;13.29;86.17
18749;BME280;9503;53.560;10.246;2022-10-19T04:15:24;102141.72;;;13.24;86.32
18749;BME280;9503;53.560;10.246;2022-10-19T04:17:52;102148.16;;;13.17;86.46
18749;BME280;9503;53.560;10.246;2022-10-19T04:20:18;102144.41;;;13.12;86.78
18749;BME280;9503;53.560;10.246;2022-10-19T04:22:45;102139.16;;;13.11;86.91
18749;BME280;9503;53.560;10.246;2022-10-19T04:25:11;102155.00;;;13.17;87.23
18749;BME280;9503;53.560;10.246;2022-10-19T04:27:38;102152.50;;;13.18;86.92
18749;BME280;9503;53.560;10.246;2022-10-19T04:30:05;102152.72;;;13.21;86.57
18749;BME280;9503;53.560;10.246;2022-10-19T04:32:32;102142.84;;;13.29;86.54
18749;BME280;9503;53.560;10.246;2022-10-19T04:35:00;102143.84;;;13.03;87.18
18749;BME280;9503;53.560;10.246;2022-10-19T04:37:26;102147.69;;;13.10;87.24
18749;BME280;9503;53.560;10.246;2022-10-19T04:39:53;102153.44;;;13.06;87.15
18749;BME280;9503;53.560;10.246;2022-10-19T04:42:20;102151.69;;;13.19;86.90
18749;BME280;9503;53.560;10.246;2022-10-19T04:44:46;102154.91;;;13.15;86.99
18749;BME280;9503;53.560;10.246;2022-10-19T04:47:12;102156.22;;;13.09;87.14
18749;BME280;9503;53.560;10.246;2022-10-19T04:49:39;102157.28;;;13.12;86.87
18749;BME280;9503;53.560;10.246;2022-10-19T04:52:07;102162.63;;;13.15;86.62
18749;BME280;9503;53.560;10.246;2022-10-19T04:54:33;102159.84;;;13.12;86.83
18749;BME280;9503;53.560;10.246;2022-10-19T04:57:00;102170.78;;;13.08;87.18
18749;BME280;9503;53.560;10.246;2022-10-19T04:59:26;102167.25;;;12.93;87.71
18749;BME280;9503;53.560;10.246;2022-10-19T05:01:53;102163.34;;;12.99;87.89
18749;BME280;9503;53.560;10.246;2022-10-19T05:04:19;102168.38;;;13.11;87.40
18749;BME280;9503;53.560;10.246;2022-10-19T05:06:46;102169.97;;;13.09;87.31
18749;BME280;9503;53.560;10.246;2022-10-19T05:09:14;102166.50;;;13.09;87.30
18749;BME280;9503;53.560;10.246;2022-10-19T05:11:41;102167.41;;;13.09;87.48
18749;BME280;9503;53.560;10.246;2022-10-19T05:14:07;102159.94;;;13.14;87.37
18749;BME280;9503;53.560;10.246;2022-10-19T05:16:34;102160.56;;;13.23;86.78
18749;BME280;9503;53.560;10.246;2022-10-19T05:19:00;102172.53;;;13.22;86.85
18749;BME280;9503;53.560;10.246;2022-10-19T05:21:27;102164.19;;;13.26;86.25
18749;BME280;9503;53.560;10.246;2022-10-19T05:23:55;102168.84;;;13.19;86.35
18749;BME280;9503;53.560;10.246;2022-10-19T05:26:25;102167.66;;;13.27;85.92
18749;BME280;9503;53.560;10.246;2022-10-19T05:28:54;102163.06;;;13.08;86.79
18749;BME280;9503;53.560;10.246;2022-10-19T05:31:22;102167.38;;;13.22;86.35
18749;BME280;9503;53.560;10.246;2022-10-19T05:33:49;102163.59;;;13.31;85.85
18749;BME280;9503;53.560;10.246;2022-10-19T05:36:18;102161.09;;;13.32;86.08
18749;BME280;9503;53.560;10.246;2022-10-19T05:38:47;102155.66;;;13.27;86.14
18749;BME280;9503;53.560;10.246;2022-10-19T05:41:15;102158.22;;;13.27;86.21
18749;BME280;9503;53.560;10.246;2022-10-19T05:43:44;102158.06;;;13.24;86.04
18749;BME280;9503;53.560;10.246;2022-10-19T05:46:13;102163.59;;;13.17;85.97
18749;BME280;9503;53.560;10.246;2022-10-19T05:48:41;102157.44;;;13.28;86.14
18749;BME280;9503;53.560;10.246;2022-10-19T05:51:10;102161.81;;;13.16;86.60
18749;BME280;9503;53.560;10.246;2022-10-19T05:53:38;102166.91;;;13.15;86.82
18749;BME280;9503;53.560;10.246;2022-10-19T05:56:05;102164.28;;;13.00;87.33
18749;BME280;9503;53.560;10.246;2022-10-19T05:58:33;102152.53;;;13.05;87.91
18749;BME280;9503;53.560;10.246;2022-10-19T06:01:02;102161.63;;;13.13;87.68
18749;BME280;9503;53.560;10.246;2022-10-19T06:03:29;102157.78;;;13.20;87.40
18749;BME280;9503;53.560;10.246;2022-10-19T06:05:56;102162.31;;;13.24;86.99
18749;BME280;9503;53.560;10.246;2022-10-19T06:08:23;102165.84;;;12.98;87.79
18749;BME280;9503;53.560;10.246;2022-10-19T06:10:50;102171.34;;;13.17;87.46
18749;BME280;9503;53.560;10.246;2022-10-19T06:13:18;102161.41;;;12.95;88.26
18749;BME280;9503;53.560;10.246;2022-10-19T06:15:49;102165.50;;;13.07;88.22
18749;BME280;9503;53.560;10.246;2022-10-19T06:18:17;102171.25;;;13.16;88.06
18749;BME280;9503;53.560;10.246;2022-10-19T06:20:44;102169.34;;;13.13;88.20
18749;BME280;9503;53.560;10.246;2022-10-19T06:23:10;102176.56;;;13.47;88.75
18749;BME280;9503;53.560;10.246;2022-10-19T06:25:37;102176.78;;;13.94;86.52
18749;BME280;9503;53.560;10.246;2022-10-19T06:28:03;102173.16;;;14.36;84.97
18749;BME280;9503;53.560;10.246;2022-10-19T06:30:30;102177.34;;;14.80;82.83
18749;BME280;9503;53.560;10.246;2022-10-19T06:32:57;102168.66;;;14.95;80.32
18749;BME280;9503;53.560;10.246;2022-10-19T06:35:25;102165.44;;;14.99;79.83
18749;BME280;9503;53.560;10.246;2022-10-19T06:37:54;102173.31;;;14.69;79.46
18749;BME280;9503;53.560;10.246;2022-10-19T06:40:21;102174.94;;;14.37;80.59
18749;BME280;9503;53.560;10.246;2022-10-19T06:42:48;102168.59;;;14.01;81.90
18749;BME280;9503;53.560;10.246;2022-10-19T06:45:15;102178.66;;;13.67;83.52
18749;BME280;9503;53.560;10.246;2022-10-19T06:47:42;102174.38;;;13.53;84.95
18749;BME280;9503;53.560;10.246;2022-10-19T06:50:09;102166.66;;;13.97;86.05
18749;BME280;9503;53.560;10.246;2022-10-19T06:52:37;102164.38;;;14.33;83.93
18749;BME280;9503;53.560;10.246;2022-10-19T06:55:06;102164.72;;;14.24;82.36
18749;BME280;9503;53.560;10.246;2022-10-19T06:57:32;102166.38;;;14.07;82.52
18749;BME280;9503;53.560;10.246;2022-10-19T06:59:59;102168.34;;;13.82;83.98
18749;BME280;9503;53.560;10.246;2022-10-19T07:02:25;102174.56;;;13.71;84.69
18749;BME280;9503;53.560;10.246;2022-10-19T07:04:52;102178.66;;;13.67;85.01
18749;BME280;9503;53.560;10.246;2022-10-19T07:07:18;102182.63;;;13.62;85.65
18749;BME280;9503;53.560;10.246;2022-10-19T07:09:48;102179.34;;;13.65;85.76
18749;BME280;9503;53.560;10.246;2022-10-19T07:12:14;102182.63;;;13.62;86.92
18749;BME280;9503;53.560;10.246;2022-10-19T07:14:41;102170.94;;;13.82;86.94
18749;BME280;9503;53.560;10.246;2022-10-19T07:17:09;102188.50;;;14.33;86.64
18749;BME280;9503;53.560;10.246;2022-10-19T07:19:36;102190.59;;;14.86;84.32
18749;BME280;9503;53.560;10.246;2022-10-19T07:22:03;102198.94;;;14.66;82.89
18749;BME280;9503;53.560;10.246;2022-10-19T07:24:30;102193.69;;;14.64;82.34
18749;BME280;9503;53.560;10.246;2022-10-19T07:26:58;102199.41;;;14.59;82.23
18749;BME280;9503;53.560;10.246;2022-10-19T07:29:25;102202.72;;;14.27;83.29
18749;BME280;9503;53.560;10.246;2022-10-19T07:31:51;102201.03;;;14.27;83.73
18749;BME280;9503;53.560;10.246;2022-10-19T07:34:18;102201.56;;;14.22;84.23
18749;BME280;9503;53.560;10.246;2022-10-19T07:36:45;102207.53;;;14.21;84.34
18749;BME280;9503;53.560;10.246;2022-10-19T07:39:12;102211.09;;;14.08;85.16
18749;BME280;9503;53.560;10.246;2022-10-19T07:41:41;102208.88;;;14.14;85.56
18749;BME280;9503;53.560;10.246;2022-10-19T07:44:10;102213.22;;;14.15;85.31
18749;BME280;9503;53.560;10.246;2022-10-19T07:46:36;102227.91;;;14.16;85.20
18749;BME280;9503;53.560;10.246;2022-10-19T07:49:04;102232.16;;;14.30;85.59
18749;BME280;9503;53.560;10.246;2022-10-19T07:51:31;102223.81;;;14.34;84.57
18749;BME280;9503;53.560;10.246;2022-10-19T07:53:58;102225.31;;;14.16;86.11
18749;BME280;9503;53.560;10.246;2022-10-19T07:56:26;102230.69;;;14.04;85.67
18749;BME280;9503;53.560;10.246;2022-10-19T07:58:54;102235.47;;;14.13;86.27
18749;BME280;9503;53.560;10.246;2022-10-19T08:01:24;102239.31;;;14.20;86.24
18749;BME280;9503;53.560;10.246;2022-10-19T08:03:51;102229.88;;;14.20;86.30
18749;BME280;9503;53.560;10.246;2022-10-19T08:06:19;102240.78;;;14.16;86.22
18749;BME280;9503;53.560;10.246;2022-10-19T08:08:47;102232.41;;;13.61;87.91
18749;BME280;9503;53.560;10.246;2022-10-19T08:11:16;102234.19;;;13.62;87.59
18749;BME280;9503;53.560;10.246;2022-10-19T08:13:43;102241.59;;;13.86;87.86
18749;BME280;9503;53.560;10.246;2022-10-19T08:16:20;102236.97;;;13.95;87.09
18749;BME280;9503;53.560;10.246;2022-10-19T08:18:49;102236.00;;;14.07;86.89
18749;BME280;9503;53.560;10.246;2022-10-19T08:21:16;102239.28;;;13.75;88.04
18749;BME280;9503;53.560;10.246;2022-10-19T08:23:42;102238.38;;;13.75;88.79
18749;BME280;9503;53.560;10.246;2022-10-19T08:26:09;102245.59;;;14.10;86.27
18749;BME280;9503;53.560;10.246;2022-10-19T08:28:35;102247.66;;;14.30;86.00
18749;BME280;9503;53.560;10.246;2022-10-19T08:31:08;102253.16;;;14.07;86.78
18749;BME280;9503;53.560;10.246;2022-10-19T08:33:35;102246.22;;;14.06;86.51
18749;BME280;9503;53.560;10.246;2022-10-19T08:36:05;102251.56;;;13.94;85.68
18749;BME280;9503;53.560;10.246;2022-10-19T08:38:32;102253.06;;;13.91;86.38
18749;BME280;9503;53.560;10.246;2022-10-19T08:41:04;102260.00;;;13.92;86.13
18749;BME280;9503;53.560;10.246;2022-10-19T08:43:37;102270.00;;;13.72;86.98
18749;BME280;9503;53.560;10.246;2022-10-19T08:46:12;102262.78;;;13.52;87.65
18749;BME280;9503;53.560;10.246;2022-10-19T08:48:39;102268.88;;;13.67;87.93
18749;BME280;9503;53.560;10.246;2022-10-19T08:51:10;102272.03;;;14.06;87.32
18749;BME280;9503;53.560;10.246;2022-10-19T08:53:43;102279.13;;;14.10;86.33
18749;BME280;9503;53.560;10.246;2022-10-19T08:56:18;102282.50;;;13.94;86.45
18749;BME280;9503;53.560;10.246;2022-10-19T08:58:56;102275.50;;;14.36;85.20
18749;BME280;9503;53.560;10.246;2022-10-19T09:01:35;102277.81;;;14.46;83.99
18749;BME280;9503;53.560;10.246;2022-10-19T09:04:05;102271.94;;;14.63;83.96
18749;BME280;9503;53.560;10.246;2022-10-19T09:06:41;102272.25;;;14.84;83.25
18749;BME280;9503;53.560;10.246;2022-10-19T09:09:14;102267.88;;;15.14;82.51
18749;BME280;9503;53.560;10.246;2022-10-19T09:11:43;102277.06;;;15.09;82.19
18749;BME280;9503;53.560;10.246;2022-10-19T09:14:15;102281.56;;;15.93;80.19
18749;BME280;9503;53.560;10.246;2022-10-19T09:16:43;102277.91;;;16.40;77.84
18749;BME280;9503;53.560;10.246;2022-10-19T09:19:14;102278.59;;;16.20;78.21
18749;BME280;9503;53.560;10.246;2022-10-19T09:21:47;102276.78;;;15.85;76.85
18749;BME280;9503;53.560;10.246;2022-10-19T09:24:27;102281.66;;;15.95;75.22
18749;BME280;9503;53.560;10.246;2022-10-19T09:26:55;102277.06;;;16.41;74.97
18749;BME280;9503;53.560;10.246;2022-10-19T09:29:25;102283.63;;;16.17;74.49
18749;BME280;9503;53.560;10.246;2022-10-19T09:31:54;102274.34;;;16.38;73.50
18749;BME280;9503;53.560;10.246;2022-10-19T09:34:24;102278.22;;;16.30;75.18
18749;BME280;9503;53.560;10.246;2022-10-19T09:36:54;102276.81;;;16.53;74.97
18749;BME280;9503;53.560;10.246;2022-10-19T09:39:22;102279.72;;;16.77;72.76
18749;BME280;9503;53.560;10.246;2022-10-19T09:41:51;102274.19;;;17.63;70.81
18749;BME280;9503;53.560;10.246;2022-10-19T09:44:19;102274.47;;;17.50;71.12
18749;BME280;9503;53.560;10.246;2022-10-19T09:46:48;102278.97;;;17.73;69.63
18749;BME280;9503;53.560;10.246;2022-10-19T09:49:17;102279.69;;;17.51;70.08
18749;BME280;9503;53.560;10.246;2022-10-19T09:51:48;102289.41;;;17.75;68.91
18749;BME280;9503;53.560;10.246;2022-10-19T09:54:26;102288.16;;;16.91;70.27
18749;BME280;9503;53.560;10.246;2022-10-19T09:56:56;102286.84;;;16.47;70.78
18749;BME280;9503;53.560;10.246;2022-10-19T09:59:24;102289.19;;;16.08;72.12
18749;BME280;9503;53.560;10.246;2022-10-19T10:02:10;102291.72;;;16.07;72.92
18749;BME280;9503;53.560;10.246;2022-10-19T10:04:39;102287.25;;;15.70;73.41
18749;BME280;9503;53.560;10.246;2022-10-19T10:07:08;102292.00;;;15.79;74.39
18749;BME280;9503;53.560;10.246;2022-10-19T10:09:43;102295.38;;;16.10;74.08
18749;BME280;9503;53.560;10.246;2022-10-19T10:12:13;102292.16;;;16.50;71.82
18749;BME280;9503;53.560;10.246;2022-10-19T10:14:40;102297.78;;;16.59;71.77
18749;BME280;9503;53.560;10.246;2022-10-19T10:17:13;102285.56;;;17.10;70.52
18749;BME280;9503;53.560;10.246;2022-10-19T10:19:50;102284.19;;;17.36;67.37
18749;BME280;9503;53.560;10.246;2022-10-19T10:22:29;102289.78;;;17.45;66.42
18749;BME280;9503;53.560;10.246;2022-10-19T10:24:58;102286.34;;;17.07;66.50
18749;BME280;9503;53.560;10.246;2022-10-19T10:27:31;102286.09;;;17.03;67.48
18749;BME280;9503;53.560;10.246;2022-10-19T10:30:04;102296.09;;;17.50;67.62
18749;BME280;9503;53.560;10.246;2022-10-19T10:32:31;102292.91;;;17.75;66.09
18749;BME280;9503;53.560;10.246;2022-10-19T10:35:04;102293.72;;;17.74;65.50
18749;BME280;9503;53.560;10.246;2022-10-19T10:37:36;102299.13;;;17.79;65.70
18749;BME280;9503;53.560;10.246;2022-10-19T10:40:18;102303.72;;;17.10;68.41
18749;BME280;9503;53.560;10.246;2022-10-19T10:42:46;102312.94;;;16.51;70.40
18749;BME280;9503;53.560;10.246;2022-10-19T10:45:16;102308.63;;;16.00;72.49
18749;BME280;9503;53.560;10.246;2022-10-19T10:47:44;102303.44;;;16.00;72.34
18749;BME280;9503;53.560;10.246;2022-10-19T10:50:17;102304.03;;;16.63;71.36
18749;BME280;9503;53.560;10.246;2022-10-19T10:52:56;102305.44;;;16.74;69.62
18749;BME280;9503;53.560;10.246;2022-10-19T10:55:24;102305.22;;;16.87;68.99
18749;BME280;9503;53.560;10.246;2022-10-19T10:57:56;102305.84;;;17.56;67.85
18749;BME280;9503;53.560;10.246;2022-10-19T11:00:24;102290.56;;;17.05;68.50
18749;BME280;9503;53.560;10.246;2022-10-19T11:02:55;102289.50;;;16.48;70.14
18749;BME280;9503;53.560;10.246;2022-10-19T11:05:25;102292.72;;;16.09;70.19
18749;BME280;9503;53.560;10.246;2022-10-19T11:07:55;102295.06;;;16.38;70.67
18749;BME280;9503;53.560;10.246;2022-10-19T11:10:29;102290.47;;;16.33;70.53
18749;BME280;9503;53.560;10.246;2022-10-19T11:13:04;102293.81;;;16.14;69.57
18749;BME280;9503;53.560;10.246;2022-10-19T11:15:38;102287.59;;;16.62;69.75
18749;BME280;9503;53.560;10.246;2022-10-19T11:18:15;102282.63;;;17.20;67.75
18749;BME280;9503;53.560;10.246;2022-10-19T11:20:49;102287.75;;;17.96;65.58
18749;BME280;9503;53.560;10.246;2022-10-19T11:23:25;102278.78;;;18.71;63.87
18749;BME280;9503;53.560;10.246;2022-10-19T11:26:05;102278.91;;;18.95;62.41
18749;BME280;9503;53.560;10.246;2022-10-19T11:28:48;102274.63;;;19.20;61.69
18749;BME280;9503;53.560;10.246;2022-10-19T11:31:23;102273.16;;;18.82;62.63
18749;BME280;9503;53.560;10.246;2022-10-19T11:34:01;102268.19;;;19.80;59.67
18749;BME280;9503;53.560;10.246;2022-10-19T11:36:45;102274.44;;;19.85;60.11
18749;BME280;9503;53.560;10.246;2022-10-19T11:42:08;102253.13;;;18.58;62.06
18749;BME280;9503;53.560;10.246;2022-10-19T11:44:47;102261.28;;;17.45;63.89
18749;BME280;9503;53.560;10.246;2022-10-19T11:47:29;102254.03;;;17.19;67.29
18749;BME280;9503;53.560;10.246;2022-10-19T11:50:08;102252.69;;;16.90;66.33
18749;BME280;9503;53.560;10.246;2022-10-19T11:52:45;102237.38;;;16.76;67.23
18749;BME280;9503;53.560;10.246;2022-10-19T11:55:23;102245.50;;;16.84;67.53
18749;BME280;9503;53.560;10.246;2022-10-19T11:57:59;102237.22;;;16.55;69.68
18749;BME280;9503;53.560;10.246;2022-10-19T12:00:36;102233.78;;;16.21;69.58
18749;BME280;9503;53.560;10.246;2022-10-19T12:03:19;102237.03;;;15.83;70.90
18749;BME280;9503;53.560;10.246;2022-10-19T12:06:02;102226.56;;;16.49;70.28
18749;BME280;9503;53.560;10.246;2022-10-19T12:08:44;102221.84;;;16.96;68.01
18749;BME280;9503;53.560;10.246;2022-10-19T12:11:23;102217.06;;;17.42;67.10
18749;BME280;9503;53.560;10.246;2022-10-19T12:13:55;102205.56;;;17.76;62.62
18749;BME280;9503;53.560;10.246;2022-10-19T12:16:32;102197.38;;;18.07;61.66
18749;BME280;9503;53.560;10.246;2022-10-19T12:19:02;102205.47;;;17.93;60.33
18749;BME280;9503;53.560;10.246;2022-10-19T12:21:32;102206.16;;;17.89;59.33
18749;BME280;9503;53.560;10.246;2022-10-19T12:24:01;102195.41;;;18.22;59.25
18749;BME280;9503;53.560;10.246;2022-10-19T12:26:31;102199.22;;;18.73;57.77
18749;BME280;9503;53.560;10.246;2022-10-19T12:29:05;102191.34;;;19.42;57.06
18749;BME280;9503;53.560;10.246;2022-10-19T12:31:34;102185.22;;;19.40;56.58
18749;BME280;9503;53.560;10.246;2022-10-19T12:34:06;102184.78;;;19.53;57.18
18749;BME280;9503;53.560;10.246;2022-10-19T12:36:41;102176.97;;;19.28;58.91
18749;BME280;9503;53.560;10.246;2022-10-19T12:39:13;102179.03;;;19.38;59.57
18749;BME280;9503;53.560;10.246;2022-10-19T12:41:45;102170.75;;;18.56;61.65
18749;BME280;9503;53.560;10.246;2022-10-19T12:44:36;102176.03;;;17.93;62.72
18749;BME280;9503;53.560;10.246;2022-10-19T12:47:09;102171.44;;;17.66;63.30
18749;BME280;9503;53.560;10.246;2022-10-19T12:49:43;102166.91;;;17.62;64.53
18749;BME280;9503;53.560;10.246;2022-10-19T12:52:10;102167.72;;;17.02;65.37
18749;BME280;9503;53.560;10.246;2022-10-19T12:54:39;102168.56;;;17.20;65.90
18749;BME280;9503;53.560;10.246;2022-10-19T12:57:28;102163.75;;;16.71;66.88
18749;BME280;9503;53.560;10.246;2022-10-19T13:00:17;102164.25;;;16.64;68.82
18749;BME280;9503;53.560;10.246;2022-10-19T13:02:46;102160.84;;;16.65;68.24
18749;BME280;9503;53.560;10.246;2022-10-19T13:05:19;102155.47;;;16.61;65.43
18749;BME280;9503;53.560;10.246;2022-10-19T13:07:47;102158.41;;;16.50;64.51